Girton, United Kingdom
Current Conditions -  °F | °C
As of 6:20 AM on Saturday 25 Oct 2014 (Local Time) from EGSC Reporting Station
Few Clouds Few Clouds  
Wind Chill: 40°   Ceiling: Unl
Heat Index: 43°   Visibility: 6mi
Dew Point: 41°   Wind: 5mph
Humidity: 93%   Direction: 210°SSW
Pressure: 30"   Gusts: NA
Location:  52.23°N, 0.08°E
Report Text: EGSC 250520Z 21004KT 170V240 9999 FEW030 06/05 Q1016
Loading
Personal Weather Stations






























Interactive Weather Map
Tropical Storm Tracking
New forecast layout! Learn more

10-Day Weather Forecast

Advertisements
Track Severe Weather on mobile